createdAt,value
2018-09-30T00:02:00.411Z,6.80
2018-09-30T00:04:28.542Z,6.80
2018-09-30T00:06:56.651Z,6.70
2018-09-30T00:09:28.808Z,6.70
2018-09-30T00:11:57.497Z,6.70
2018-09-30T00:14:25.695Z,6.70
2018-09-30T00:16:53.832Z,6.70
2018-09-30T00:19:22.079Z,6.60
2018-09-30T00:21:50.328Z,6.60
2018-09-30T00:24:23.935Z,6.60
2018-09-30T00:26:58.756Z,6.50
2018-09-30T00:29:28.246Z,6.40
2018-09-30T00:31:56.854Z,6.40
2018-09-30T00:34:26.439Z,6.30
2018-09-30T00:36:56.247Z,6.30
2018-09-30T00:39:24.640Z,6.20
2018-09-30T00:41:53.001Z,6.30
2018-09-30T00:44:21.134Z,6.20
2018-09-30T00:46:49.271Z,6.30
2018-09-30T00:49:17.409Z,6.20
2018-09-30T00:51:45.583Z,6.20
2018-09-30T00:54:14.548Z,6.20
2018-09-30T00:56:42.975Z,6.10
2018-09-30T00:59:11.446Z,6.10
2018-09-30T01:01:39.593Z,6.00
2018-09-30T01:04:08.017Z,6.00
2018-09-30T01:06:36.148Z,6.00
2018-09-30T01:09:08.328Z,6.00
2018-09-30T01:11:36.785Z,5.90
2018-09-30T01:14:04.920Z,5.90
2018-09-30T01:16:33.097Z,5.90
2018-09-30T01:19:01.217Z,5.90
2018-09-30T01:21:29.525Z,5.90
2018-09-30T01:23:57.650Z,5.90
2018-09-30T01:26:25.830Z,5.90
2018-09-30T01:28:53.965Z,5.80
2018-09-30T01:31:22.072Z,5.80
2018-09-30T01:33:50.210Z,5.80
2018-09-30T01:36:18.337Z,5.80
2018-09-30T01:38:46.466Z,5.80
2018-09-30T01:41:14.614Z,5.80
2018-09-30T01:43:42.805Z,5.70
2018-09-30T01:46:10.923Z,5.70
2018-09-30T01:48:39.121Z,5.70
2018-09-30T01:51:07.251Z,5.60
2018-09-30T01:53:35.511Z,5.60
2018-09-30T01:56:03.659Z,5.60
2018-09-30T01:58:31.824Z,5.60
2018-09-30T02:00:59.960Z,5.60
2018-09-30T02:03:28.114Z,5.50
2018-09-30T02:05:56.226Z,5.50
2018-09-30T02:08:24.354Z,5.50
2018-09-30T02:10:52.526Z,5.50
2018-09-30T02:13:20.859Z,5.40
2018-09-30T02:15:48.989Z,5.40
2018-09-30T02:18:17.126Z,5.40
2018-09-30T02:20:45.298Z,5.40
2018-09-30T02:23:13.514Z,5.40
2018-09-30T02:25:41.625Z,5.30
2018-09-30T02:28:09.761Z,5.30
2018-09-30T02:30:37.906Z,5.30
2018-09-30T02:33:06.101Z,5.30
2018-09-30T02:35:34.298Z,5.30
2018-09-30T02:38:02.444Z,5.30
2018-09-30T02:40:30.574Z,5.30
2018-09-30T02:42:58.695Z,5.30
2018-09-30T02:45:26.839Z,5.30
2018-09-30T02:47:54.958Z,5.30
2018-09-30T02:50:23.085Z,5.30
2018-09-30T02:52:51.218Z,5.30
2018-09-30T02:55:19.346Z,5.40
2018-09-30T02:57:47.579Z,5.40
2018-09-30T03:00:15.710Z,5.40
2018-09-30T03:02:43.825Z,5.40
2018-09-30T03:05:11.968Z,5.40
2018-09-30T03:07:45.459Z,5.30
2018-09-30T03:10:13.593Z,5.30
2018-09-30T03:12:41.732Z,5.30
2018-09-30T03:15:09.887Z,5.30
2018-09-30T03:17:38.014Z,5.30
2018-09-30T03:25:04.610Z,5.30
2018-09-30T03:27:32.726Z,5.30
2018-09-30T03:30:00.873Z,5.30
2018-09-30T03:32:28.994Z,5.40
2018-09-30T03:34:57.168Z,5.30
2018-09-30T03:37:25.283Z,5.30
2018-09-30T03:39:53.415Z,5.30
2018-09-30T03:42:21.547Z,5.30
2018-09-30T03:44:49.666Z,5.30
2018-09-30T03:47:17.801Z,5.30
2018-09-30T03:49:45.914Z,5.30
2018-09-30T03:52:14.056Z,5.30
2018-09-30T03:54:42.292Z,5.20
2018-09-30T03:57:10.401Z,5.20
2018-09-30T03:59:38.536Z,5.20
2018-09-30T04:02:07.012Z,5.10
2018-09-30T04:04:35.164Z,5.10
2018-09-30T04:07:03.289Z,5.20
2018-09-30T04:09:31.432Z,5.20
2018-09-30T04:11:59.557Z,5.20
2018-09-30T04:14:27.671Z,5.20
2018-09-30T04:16:55.875Z,5.20
2018-09-30T04:19:24.093Z,5.20
2018-09-30T04:21:52.222Z,5.20
2018-09-30T04:24:20.350Z,5.10
2018-09-30T04:26:48.526Z,5.10
2018-09-30T04:29:16.633Z,5.10
2018-09-30T04:31:44.767Z,5.00
2018-09-30T04:34:12.879Z,5.00
2018-09-30T04:36:41.001Z,5.00
2018-09-30T04:39:09.806Z,5.00
2018-09-30T04:41:37.948Z,5.00
2018-09-30T04:44:06.101Z,4.90
2018-09-30T04:46:34.249Z,4.90
2018-09-30T04:49:02.390Z,4.90
2018-09-30T04:51:30.517Z,4.80
2018-09-30T04:53:58.638Z,4.80
2018-09-30T04:56:26.766Z,4.80
2018-09-30T04:58:54.886Z,4.80
2018-09-30T05:01:23.042Z,4.70
2018-09-30T05:03:51.154Z,4.70
2018-09-30T05:06:19.290Z,4.70
2018-09-30T05:08:47.440Z,4.70
2018-09-30T05:11:15.573Z,4.70
2018-09-30T05:13:43.696Z,4.70
2018-09-30T05:16:11.909Z,4.70
2018-09-30T05:18:39.986Z,4.80
2018-09-30T05:21:08.136Z,4.80
2018-09-30T05:23:36.497Z,4.80
2018-09-30T05:26:04.656Z,4.80
2018-09-30T05:28:32.777Z,4.70
2018-09-30T05:31:00.902Z,4.70
2018-09-30T05:33:29.054Z,4.70
2018-09-30T05:35:57.196Z,4.70
2018-09-30T05:38:25.325Z,4.70
2018-09-30T05:40:53.499Z,4.70
2018-09-30T05:43:21.622Z,4.70
2018-09-30T05:45:49.750Z,4.70
2018-09-30T05:48:17.873Z,4.80
2018-09-30T05:50:46.014Z,4.80
2018-09-30T05:53:14.141Z,4.80
2018-09-30T05:55:42.315Z,4.80
2018-09-30T05:58:10.437Z,4.90
2018-09-30T06:00:38.577Z,4.90
2018-09-30T06:03:06.752Z,5.00
2018-09-30T06:05:34.926Z,5.10
2018-09-30T06:08:03.074Z,5.10
2018-09-30T06:10:31.193Z,5.10
2018-09-30T06:12:59.386Z,5.20
2018-09-30T06:15:27.510Z,5.30
2018-09-30T06:17:55.668Z,5.40
2018-09-30T06:20:23.770Z,5.50
2018-09-30T06:22:51.923Z,5.60
2018-09-30T06:25:20.042Z,5.60
2018-09-30T06:27:48.355Z,5.70
2018-09-30T06:30:16.511Z,5.70
2018-09-30T06:32:44.665Z,5.80
2018-09-30T06:35:12.858Z,5.90
2018-09-30T06:37:41.231Z,6.00
2018-09-30T06:40:09.395Z,6.10
2018-09-30T06:42:37.534Z,6.10
2018-09-30T06:45:05.769Z,6.20
2018-09-30T06:47:33.882Z,6.30
2018-09-30T06:50:02.018Z,6.40
2018-09-30T06:52:30.153Z,6.50
2018-09-30T06:54:58.293Z,6.50
2018-09-30T06:57:26.412Z,6.60
2018-09-30T06:59:54.519Z,6.70
2018-09-30T07:02:22.687Z,6.80
2018-09-30T07:04:50.831Z,6.90
2018-09-30T07:07:18.953Z,7.00
2018-09-30T07:09:47.106Z,7.10
2018-09-30T07:12:15.249Z,7.20
2018-09-30T07:14:43.425Z,7.20
2018-09-30T07:17:11.556Z,7.30
2018-09-30T07:19:39.686Z,7.40
2018-09-30T07:22:07.824Z,7.50
2018-09-30T07:24:36.017Z,7.60
2018-09-30T07:27:04.293Z,7.70
2018-09-30T07:29:32.451Z,7.80
2018-09-30T07:32:00.622Z,7.90
2018-09-30T07:34:28.770Z,8.00
2018-09-30T07:36:56.915Z,8.10
2018-09-30T07:39:25.065Z,8.20
2018-09-30T07:41:53.187Z,8.30
2018-09-30T07:44:21.325Z,8.40
2018-09-30T07:46:49.680Z,8.50
2018-09-30T07:49:17.774Z,8.60
2018-09-30T07:51:45.926Z,8.80
2018-09-30T07:54:14.060Z,8.90
2018-09-30T07:56:42.277Z,9.00
2018-09-30T07:59:10.387Z,9.10
2018-09-30T08:01:38.589Z,9.20
2018-09-30T08:04:07.074Z,9.40
2018-09-30T08:06:35.235Z,9.50
2018-09-30T08:09:03.900Z,9.60
2018-09-30T08:11:32.074Z,9.80
2018-09-30T08:14:00.207Z,9.90
2018-09-30T08:16:28.437Z,10.00
2018-09-30T08:18:56.557Z,10.10
2018-09-30T08:21:24.681Z,10.30
2018-09-30T08:23:52.838Z,10.40
2018-09-30T08:26:20.980Z,10.60
2018-09-30T08:28:49.114Z,10.70
2018-09-30T08:31:17.257Z,10.80
2018-09-30T08:33:45.412Z,11.00
2018-09-30T08:36:13.624Z,11.10
2018-09-30T08:38:42.312Z,11.20
2018-09-30T08:41:11.481Z,11.30
2018-09-30T08:43:40.964Z,11.40
2018-09-30T08:46:09.470Z,11.60
2018-09-30T08:48:37.667Z,11.60
2018-09-30T08:51:06.137Z,11.70
2018-09-30T08:53:34.326Z,11.80
2018-09-30T08:56:02.508Z,11.90
2018-09-30T08:58:30.969Z,12.00
2018-09-30T09:00:59.264Z,12.10
2018-09-30T09:03:27.992Z,12.30
2018-09-30T09:05:56.146Z,12.40
2018-09-30T09:08:24.326Z,12.50
2018-09-30T09:10:52.426Z,12.60
2018-09-30T09:13:20.575Z,12.70
2018-09-30T09:15:48.742Z,12.80
2018-09-30T09:18:17.005Z,12.80
2018-09-30T09:20:45.158Z,13.00
2018-09-30T09:23:13.335Z,13.10
2018-09-30T09:25:41.769Z,13.20
2018-09-30T09:28:10.565Z,13.20
2018-09-30T09:30:38.756Z,13.30
2018-09-30T09:33:07.010Z,13.40
2018-09-30T09:35:35.074Z,13.50
2018-09-30T09:38:03.272Z,13.60
2018-09-30T09:40:31.386Z,13.70
2018-09-30T09:42:59.554Z,13.90
2018-09-30T09:45:27.734Z,14.00
2018-09-30T09:47:55.916Z,14.20
2018-09-30T09:50:24.134Z,14.30
2018-09-30T09:52:52.470Z,14.50
2018-09-30T09:55:20.654Z,14.70
2018-09-30T09:57:48.847Z,14.80
2018-09-30T10:00:22.328Z,15.00
2018-09-30T10:02:50.544Z,15.20
2018-09-30T10:05:18.730Z,15.30
2018-09-30T10:07:47.194Z,15.50
2018-09-30T10:10:15.538Z,15.60
2018-09-30T10:12:43.718Z,15.60
2018-09-30T10:15:11.917Z,15.80
2018-09-30T10:17:40.085Z,15.90
2018-09-30T10:20:08.349Z,16.10
2018-09-30T10:22:36.687Z,16.30
2018-09-30T10:25:05.135Z,16.40
2018-09-30T10:27:33.732Z,16.60
2018-09-30T10:30:02.096Z,16.70
2018-09-30T10:32:30.426Z,16.80
2018-09-30T10:34:58.955Z,16.90
2018-09-30T10:37:27.236Z,17.00
2018-09-30T10:39:55.606Z,17.20
2018-09-30T10:42:23.807Z,17.30
2018-09-30T10:44:52.191Z,17.50
2018-09-30T10:47:20.486Z,17.40
2018-09-30T10:49:48.821Z,17.30
2018-09-30T10:52:16.982Z,17.30
2018-09-30T10:54:45.214Z,17.30
2018-09-30T10:57:13.693Z,17.50
2018-09-30T10:59:42.037Z,17.40
2018-09-30T11:02:10.291Z,17.40
2018-09-30T11:04:38.637Z,17.60
2018-09-30T11:07:07.003Z,17.80
2018-09-30T11:09:35.275Z,18.00
2018-09-30T11:12:03.531Z,18.20
2018-09-30T11:14:31.825Z,18.40
2018-09-30T11:17:00.054Z,18.70
2018-09-30T11:19:28.266Z,19.00
2018-09-30T11:21:56.412Z,19.20
2018-09-30T11:24:24.689Z,19.40
2018-09-30T11:26:52.934Z,19.70
2018-09-30T11:29:21.595Z,19.80
2018-09-30T11:31:50.017Z,20.00
2018-09-30T11:34:18.198Z,20.20
2018-09-30T11:36:46.421Z,20.20
2018-09-30T11:39:14.700Z,20.20
2018-09-30T11:41:43.705Z,20.00
2018-09-30T11:44:12.584Z,19.70
2018-09-30T11:46:41.442Z,19.70
2018-09-30T11:49:16.271Z,19.70
2018-09-30T11:51:44.485Z,19.60
2018-09-30T11:54:12.815Z,19.50
2018-09-30T11:56:41.102Z,19.40
2018-09-30T11:59:09.343Z,19.50
2018-09-30T12:01:37.602Z,19.60
2018-09-30T12:04:06.094Z,19.80
2018-09-30T12:06:34.334Z,20.10
2018-09-30T12:09:02.654Z,20.40
2018-09-30T12:11:30.986Z,20.20
2018-09-30T12:13:59.282Z,20.60
2018-09-30T12:16:27.571Z,21.20
2018-09-30T12:18:55.830Z,21.60
2018-09-30T12:21:24.234Z,21.70
2018-09-30T12:23:52.673Z,21.90
2018-09-30T12:26:21.047Z,22.10
2018-09-30T12:28:49.546Z,21.90
2018-09-30T12:31:17.861Z,21.90
2018-09-30T12:33:46.367Z,21.90
2018-09-30T12:36:14.693Z,22.40
2018-09-30T12:38:43.127Z,22.50
2018-09-30T12:41:11.427Z,22.80
2018-09-30T12:43:39.608Z,22.60
2018-09-30T12:46:07.942Z,23.30
2018-09-30T12:48:36.196Z,24.00
2018-09-30T12:51:11.131Z,24.60
2018-09-30T12:53:39.389Z,24.50
2018-09-30T12:56:07.654Z,23.80
2018-09-30T12:58:35.842Z,23.60
2018-09-30T13:01:04.234Z,23.00
2018-09-30T13:03:32.410Z,22.20
2018-09-30T13:06:00.763Z,21.60
2018-09-30T13:08:29.153Z,21.40
2018-09-30T13:10:57.545Z,21.30
2018-09-30T13:13:25.888Z,21.40
2018-09-30T13:15:54.151Z,21.90
2018-09-30T13:18:22.335Z,22.40
2018-09-30T13:20:51.588Z,22.20
2018-09-30T13:23:19.847Z,21.50
2018-09-30T13:25:48.239Z,21.10
2018-09-30T13:28:16.563Z,20.70
2018-09-30T13:30:44.983Z,20.50
2018-09-30T13:33:13.533Z,20.40
2018-09-30T13:35:41.913Z,20.30
2018-09-30T13:38:10.121Z,20.10
2018-09-30T13:40:38.478Z,20.10
2018-09-30T13:43:06.690Z,19.90
2018-09-30T13:45:34.975Z,19.80
2018-09-30T13:48:10.171Z,19.90
2018-09-30T13:50:38.505Z,20.20
2018-09-30T13:53:07.093Z,21.10
2018-09-30T13:55:35.468Z,21.20
2018-09-30T13:58:03.946Z,21.30
2018-09-30T14:00:32.281Z,21.60
2018-09-30T14:03:00.615Z,21.70
2018-09-30T14:05:29.035Z,21.90
2018-09-30T14:07:57.416Z,21.60
2018-09-30T14:10:25.702Z,21.50
2018-09-30T14:12:54.106Z,21.40
2018-09-30T14:15:22.670Z,22.00
2018-09-30T14:17:50.972Z,22.30
2018-09-30T14:20:19.271Z,22.40
2018-09-30T14:22:47.598Z,22.10
2018-09-30T14:25:16.543Z,21.60
2018-09-30T14:27:44.950Z,21.10
2018-09-30T14:30:13.317Z,20.90
2018-09-30T14:32:41.876Z,21.00
2018-09-30T14:35:10.221Z,21.30
2018-09-30T14:37:39.067Z,22.30
2018-09-30T14:40:08.553Z,23.00
2018-09-30T14:42:36.887Z,23.20
2018-09-30T14:45:05.070Z,22.80
2018-09-30T14:47:33.368Z,21.70
2018-09-30T14:50:01.602Z,20.80
2018-09-30T14:52:29.920Z,19.90
2018-09-30T14:54:58.046Z,19.60
2018-09-30T14:57:26.314Z,19.40
2018-09-30T14:59:54.437Z,19.20
2018-09-30T15:02:22.777Z,19.30
2018-09-30T15:04:50.988Z,19.90
2018-09-30T15:07:19.396Z,20.10
2018-09-30T15:09:47.795Z,19.70
2018-09-30T15:12:15.993Z,19.40
2018-09-30T15:14:44.289Z,19.10
2018-09-30T15:17:12.502Z,19.00
2018-09-30T15:19:40.906Z,18.90
2018-09-30T15:22:09.132Z,18.70
2018-09-30T15:24:37.323Z,18.60
2018-09-30T15:27:05.525Z,18.50
2018-09-30T15:29:33.933Z,18.30
2018-09-30T15:32:02.094Z,18.10
2018-09-30T15:34:30.271Z,18.10
2018-09-30T15:36:58.482Z,18.00
2018-09-30T15:39:26.686Z,18.00
2018-09-30T15:41:54.850Z,18.00
2018-09-30T15:44:23.000Z,17.90
2018-09-30T15:46:51.176Z,17.70
2018-09-30T15:49:19.338Z,17.70
2018-09-30T15:51:47.510Z,17.70
2018-09-30T15:54:15.662Z,17.60
2018-09-30T15:56:43.871Z,17.60
2018-09-30T15:59:12.029Z,17.60
2018-09-30T16:01:40.349Z,17.60
2018-09-30T16:04:08.596Z,17.50
2018-09-30T16:06:36.781Z,17.50
2018-09-30T16:09:06.422Z,17.40
2018-09-30T16:11:34.609Z,17.30
2018-09-30T16:14:02.815Z,17.30
2018-09-30T16:16:30.982Z,17.30
2018-09-30T16:19:02.374Z,17.20
2018-09-30T16:21:30.726Z,17.20
2018-09-30T16:23:58.882Z,17.10
2018-09-30T16:26:27.114Z,17.00
2018-09-30T16:28:55.312Z,17.00
2018-09-30T16:31:23.486Z,16.90
2018-09-30T16:33:52.641Z,16.90
2018-09-30T16:36:20.793Z,16.80
2018-09-30T16:38:48.959Z,16.70
2018-09-30T16:41:17.130Z,16.70
2018-09-30T16:43:45.326Z,16.60
2018-09-30T16:46:13.546Z,16.60
2018-09-30T16:48:41.743Z,16.50
2018-09-30T16:51:10.026Z,16.40
2018-09-30T16:53:38.202Z,16.40
2018-09-30T16:56:06.427Z,16.20
2018-09-30T16:58:34.602Z,16.20
2018-09-30T17:01:02.834Z,16.10
2018-09-30T17:03:31.016Z,16.00
2018-09-30T17:05:59.206Z,15.90
2018-09-30T17:08:27.354Z,15.80
2018-09-30T17:10:55.590Z,15.70
2018-09-30T17:13:23.757Z,15.70
2018-09-30T17:15:51.987Z,15.50
2018-09-30T17:18:20.306Z,15.50
2018-09-30T17:20:49.001Z,15.40
2018-09-30T17:23:17.209Z,15.30
2018-09-30T17:25:45.319Z,15.10
2018-09-30T17:28:13.491Z,15.00
2018-09-30T17:30:42.629Z,15.00
2018-09-30T17:33:10.843Z,14.90
2018-09-30T17:35:39.010Z,14.80
2018-09-30T17:38:07.337Z,14.70
2018-09-30T17:40:35.580Z,14.60
2018-09-30T17:43:03.800Z,14.50
2018-09-30T17:45:32.108Z,14.40
2018-09-30T17:48:00.241Z,14.30
2018-09-30T17:50:28.464Z,14.20
2018-09-30T17:52:58.153Z,14.10
2018-09-30T17:55:33.187Z,13.90
2018-09-30T17:58:02.148Z,13.90
2018-09-30T18:00:30.426Z,13.80
2018-09-30T18:02:58.685Z,13.80
2018-09-30T18:05:26.841Z,13.80
2018-09-30T18:07:55.064Z,13.70
2018-09-30T18:10:23.435Z,13.60
2018-09-30T18:12:51.710Z,13.60
2018-09-30T18:15:19.896Z,13.50
2018-09-30T18:17:48.151Z,13.40
2018-09-30T18:20:16.310Z,13.30
2018-09-30T18:22:44.491Z,13.20
2018-09-30T18:25:12.658Z,13.10
2018-09-30T18:27:40.916Z,13.00
2018-09-30T18:30:09.299Z,12.90
2018-09-30T18:32:37.456Z,12.90
2018-09-30T18:35:05.827Z,12.80
2018-09-30T18:37:33.980Z,12.70
2018-09-30T18:40:02.124Z,12.70
2018-09-30T18:42:30.280Z,12.60
2018-09-30T18:44:58.447Z,12.60
2018-09-30T18:47:26.581Z,12.50
2018-09-30T18:49:54.779Z,12.50
2018-09-30T18:52:22.982Z,12.40
2018-09-30T18:54:51.133Z,12.40
2018-09-30T18:57:19.259Z,12.40
2018-09-30T18:59:47.445Z,12.30
2018-09-30T19:02:15.602Z,12.30
2018-09-30T19:04:43.786Z,12.20
2018-09-30T19:07:11.914Z,12.20
2018-09-30T19:09:40.066Z,12.10
2018-09-30T19:12:08.294Z,12.00
2018-09-30T19:14:36.417Z,11.90
2018-09-30T19:17:04.539Z,11.80
2018-09-30T19:19:32.694Z,11.70
2018-09-30T19:22:00.938Z,11.60
2018-09-30T19:24:29.127Z,11.60
2018-09-30T19:26:57.297Z,11.50
2018-09-30T19:29:25.474Z,11.50
2018-09-30T19:31:53.558Z,11.40
2018-09-30T19:34:21.698Z,11.40
2018-09-30T19:36:49.893Z,11.30
2018-09-30T19:39:18.036Z,11.30
2018-09-30T19:41:46.257Z,11.20
2018-09-30T19:44:14.429Z,11.20
2018-09-30T19:46:42.584Z,11.10
2018-09-30T19:49:10.770Z,11.10
2018-09-30T19:51:38.919Z,11.10
2018-09-30T19:54:07.098Z,11.00
2018-09-30T19:56:35.238Z,10.90
2018-09-30T19:59:04.282Z,10.90
2018-09-30T20:01:33.439Z,10.90
2018-09-30T20:04:02.558Z,10.80
2018-09-30T20:06:31.258Z,10.80
2018-09-30T20:09:00.872Z,10.80
2018-09-30T20:11:29.882Z,10.80
2018-09-30T20:13:59.956Z,10.80
2018-09-30T20:16:29.086Z,10.80
2018-09-30T20:18:58.106Z,10.70
2018-09-30T20:21:26.246Z,10.70
2018-09-30T20:23:54.393Z,10.70
2018-09-30T20:26:22.903Z,10.70
2018-09-30T20:28:51.426Z,10.70
2018-09-30T20:31:19.619Z,10.60
2018-09-30T20:33:47.748Z,10.60
2018-09-30T20:36:15.906Z,10.60
2018-09-30T20:38:44.187Z,10.60
2018-09-30T20:41:15.360Z,10.60
2018-09-30T20:43:43.598Z,10.60
2018-09-30T20:46:11.761Z,10.60
2018-09-30T20:48:39.875Z,10.60
2018-09-30T20:51:08.002Z,10.50
2018-09-30T20:53:36.129Z,10.50
2018-09-30T20:56:04.266Z,10.40
2018-09-30T20:58:32.532Z,10.40
2018-09-30T21:01:00.656Z,10.40
2018-09-30T21:03:28.796Z,10.40
2018-09-30T21:06:34.107Z,10.40
2018-09-30T21:09:02.243Z,10.50
2018-09-30T21:11:30.398Z,10.40
2018-09-30T21:13:58.875Z,10.40
2018-09-30T21:16:27.049Z,10.40
2018-09-30T21:18:55.163Z,10.30
2018-09-30T21:21:23.345Z,10.30
2018-09-30T21:23:51.518Z,10.20
2018-09-30T21:26:19.830Z,10.20
2018-09-30T21:28:48.022Z,10.10
2018-09-30T21:31:16.289Z,10.10
2018-09-30T21:33:44.441Z,10.00
2018-09-30T21:36:12.557Z,9.90
2018-09-30T21:38:40.685Z,9.90
2018-09-30T21:41:08.806Z,9.90
2018-09-30T21:43:36.910Z,9.80
2018-09-30T21:46:05.046Z,9.80
2018-09-30T21:48:33.175Z,9.80
2018-09-30T21:51:01.303Z,9.80
2018-09-30T21:53:29.450Z,9.80
2018-09-30T21:55:57.581Z,9.70
2018-09-30T21:58:25.697Z,9.70
2018-09-30T22:00:57.412Z,9.60
2018-09-30T22:03:25.980Z,9.70
2018-09-30T22:05:54.261Z,9.60
2018-09-30T22:08:22.391Z,9.60
2018-09-30T22:10:50.513Z,9.60
2018-09-30T22:13:18.650Z,9.60
2018-09-30T22:15:46.787Z,9.60
2018-09-30T22:18:14.910Z,9.60
2018-09-30T22:20:43.215Z,9.60
2018-09-30T22:23:11.334Z,9.60
2018-09-30T22:25:39.462Z,9.60
2018-09-30T22:28:07.601Z,9.70
2018-09-30T22:30:35.736Z,9.80
2018-09-30T22:33:04.268Z,9.80
2018-09-30T22:35:32.393Z,9.80
2018-09-30T22:38:00.510Z,9.90
2018-09-30T22:40:28.713Z,9.90
2018-09-30T22:42:56.763Z,9.90
2018-09-30T22:45:24.920Z,9.90
2018-09-30T22:47:53.037Z,9.90
2018-09-30T22:50:21.158Z,9.90
2018-09-30T22:52:49.289Z,9.90
2018-09-30T22:55:17.402Z,9.90
2018-09-30T22:57:45.526Z,9.90
2018-09-30T23:00:13.748Z,9.90
2018-09-30T23:02:41.858Z,9.90
2018-09-30T23:05:10.179Z,9.90
2018-09-30T23:07:38.340Z,9.90
2018-09-30T23:10:09.155Z,9.90
2018-09-30T23:12:37.301Z,9.90
2018-09-30T23:15:05.418Z,10.00
2018-09-30T23:17:33.632Z,10.00
2018-09-30T23:20:01.839Z,10.00
2018-09-30T23:22:29.987Z,10.00
2018-09-30T23:24:58.173Z,10.00
2018-09-30T23:27:26.342Z,10.00
2018-09-30T23:29:54.465Z,10.00
2018-09-30T23:32:22.634Z,10.00
2018-09-30T23:34:50.758Z,10.00
2018-09-30T23:37:18.935Z,10.00
2018-09-30T23:39:47.080Z,10.00
2018-09-30T23:42:15.205Z,10.00
2018-09-30T23:44:43.325Z,10.00
2018-09-30T23:47:11.442Z,10.10
2018-09-30T23:49:39.579Z,10.10
2018-09-30T23:52:07.739Z,10.10
2018-09-30T23:54:35.859Z,10.20
2018-09-30T23:57:04.046Z,10.20
2018-09-30T23:59:32.238Z,10.20
